createdAt,value
2022-09-27T00:00:33.211Z,1.60
2022-09-27T00:03:02.463Z,1.13
2022-09-27T00:05:31.994Z,1.33
2022-09-27T00:08:00.043Z,1.52
2022-09-27T00:10:29.183Z,1.38
2022-09-27T00:12:58.034Z,1.40
2022-09-27T00:15:26.033Z,1.85
2022-09-27T00:17:54.144Z,1.83
2022-09-27T00:20:22.322Z,1.50
2022-09-27T00:22:52.008Z,1.40
2022-09-27T00:25:20.004Z,1.40
2022-09-27T00:27:48.254Z,1.33
2022-09-27T00:30:16.533Z,1.55
2022-09-27T00:32:44.427Z,1.52
2022-09-27T00:35:12.464Z,1.30
2022-09-27T00:37:40.307Z,1.75
2022-09-27T00:40:10.537Z,1.30
2022-09-27T00:42:38.626Z,1.60
2022-09-27T00:45:13.762Z,1.77
2022-09-27T00:47:49.895Z,1.20
2022-09-27T00:50:29.894Z,2.25
2022-09-27T00:53:08.488Z,1.42
2022-09-27T00:55:41.490Z,1.30
2022-09-27T00:58:12.273Z,0.98
2022-09-27T01:00:45.152Z,1.80
2022-09-27T01:03:22.414Z,1.00
2022-09-27T01:05:51.074Z,1.15
2022-09-27T01:08:19.318Z,0.90
2022-09-27T01:10:59.271Z,0.85
2022-09-27T01:13:36.415Z,1.08
2022-09-27T01:16:13.629Z,1.20
2022-09-27T01:18:55.368Z,1.15
2022-09-27T01:21:39.498Z,1.10
2022-09-27T01:24:30.261Z,1.05
2022-09-27T01:27:36.299Z,1.30
2022-09-27T01:30:22.291Z,1.40
2022-09-27T01:33:11.436Z,1.00
2022-09-27T01:35:51.008Z,1.08
2022-09-27T01:41:08.814Z,1.13
2022-09-27T01:43:59.725Z,0.85
2022-09-27T01:46:38.720Z,1.23
2022-09-27T01:49:31.108Z,1.67
2022-09-27T01:52:03.172Z,0.90
2022-09-27T01:54:37.638Z,1.08
2022-09-27T01:57:37.423Z,1.10
2022-09-27T02:00:10.544Z,0.87
2022-09-27T02:02:46.356Z,1.80
2022-09-27T02:05:43.178Z,1.30
2022-09-27T02:08:46.106Z,1.40
2022-09-27T02:11:23.715Z,0.93
2022-09-27T02:14:09.074Z,1.33
2022-09-27T02:16:51.958Z,0.93
2022-09-27T02:19:40.306Z,1.23
2022-09-27T02:22:17.284Z,1.98
2022-09-27T02:24:51.555Z,0.98
2022-09-27T02:27:25.810Z,0.95
2022-09-27T02:29:59.647Z,1.40
2022-09-27T02:32:27.891Z,1.48
2022-09-27T02:35:01.222Z,1.17
2022-09-27T02:37:29.097Z,1.75
2022-09-27T02:39:57.993Z,1.63
2022-09-27T02:42:26.539Z,1.05
2022-09-27T02:44:54.587Z,1.27
2022-09-27T02:47:39.704Z,1.48
2022-09-27T02:50:28.737Z,1.38
2022-09-27T02:53:26.429Z,1.10
2022-09-27T02:56:08.189Z,1.80
2022-09-27T02:59:11.379Z,1.40
2022-09-27T03:02:13.350Z,1.48
2022-09-27T03:05:08.628Z,1.40
2022-09-27T03:07:38.904Z,1.52
2022-09-27T03:10:08.225Z,1.52
2022-09-27T03:12:36.300Z,1.52
2022-09-27T03:15:05.523Z,1.17
2022-09-27T03:18:05.754Z,1.13
2022-09-27T03:20:42.735Z,1.10
2022-09-27T03:23:18.245Z,1.30
2022-09-27T03:25:46.800Z,1.40
2022-09-27T03:28:14.726Z,1.40
2022-09-27T03:30:46.044Z,1.42
2022-09-27T03:33:22.135Z,1.15
2022-09-27T03:35:58.924Z,1.50
2022-09-27T03:38:28.349Z,1.58
2022-09-27T03:40:56.219Z,1.77
2022-09-27T03:43:24.142Z,1.88
2022-09-27T03:45:51.896Z,1.35
2022-09-27T03:48:22.341Z,1.25
2022-09-27T03:50:52.355Z,1.50
2022-09-27T03:53:20.902Z,1.70
2022-09-27T03:55:50.512Z,2.15
2022-09-27T03:58:18.597Z,1.85
2022-09-27T04:00:47.069Z,1.52
2022-09-27T04:03:20.182Z,1.50
2022-09-27T04:05:51.100Z,2.40
2022-09-27T04:08:25.501Z,1.92
2022-09-27T04:10:55.180Z,1.60
2022-09-27T04:13:23.240Z,1.73
2022-09-27T04:15:54.899Z,2.25
2022-09-27T04:18:38.340Z,1.50
2022-09-27T04:21:32.270Z,1.48
2022-09-27T04:24:00.659Z,1.40
2022-09-27T04:26:30.610Z,1.58
2022-09-27T04:29:11.623Z,1.65
2022-09-27T04:31:44.770Z,2.45
2022-09-27T04:34:46.036Z,1.73
2022-09-27T04:37:21.611Z,1.75
2022-09-27T04:39:51.879Z,1.48
2022-09-27T04:42:22.525Z,1.77
2022-09-27T04:44:50.681Z,1.17
2022-09-27T04:47:21.412Z,1.40
2022-09-27T04:49:50.022Z,1.45
2022-09-27T04:52:18.091Z,1.85
2022-09-27T04:54:46.348Z,2.00
2022-09-27T04:57:15.510Z,1.95
2022-09-27T04:59:45.780Z,1.65
2022-09-27T05:02:14.881Z,1.70
2022-09-27T05:05:00.630Z,1.95
2022-09-27T05:07:36.127Z,2.45
2022-09-27T05:10:10.597Z,1.70
2022-09-27T05:12:39.041Z,1.30
2022-09-27T05:15:10.120Z,1.85
2022-09-27T05:17:58.480Z,1.48
2022-09-27T05:20:45.380Z,1.95
2022-09-27T05:23:24.803Z,1.40
2022-09-27T05:25:56.102Z,1.25
2022-09-27T05:28:24.740Z,1.48
2022-09-27T05:30:54.361Z,1.95
2022-09-27T05:33:23.603Z,2.05
2022-09-27T05:36:24.072Z,1.65
2022-09-27T05:38:52.350Z,1.60
2022-09-27T05:41:21.079Z,2.00
2022-09-27T05:43:49.594Z,1.90
2022-09-27T05:46:19.413Z,2.25
2022-09-27T05:48:49.170Z,1.63
2022-09-27T05:51:17.329Z,2.05
2022-09-27T05:53:45.511Z,1.83
2022-09-27T05:56:21.789Z,1.77
2022-09-27T05:59:10.019Z,2.47
2022-09-27T06:02:10.879Z,1.38
2022-09-27T06:04:55.388Z,1.77
2022-09-27T06:07:52.362Z,2.10
2022-09-27T06:10:32.990Z,1.75
2022-09-27T06:13:03.776Z,1.90
2022-09-27T06:15:39.593Z,1.80
2022-09-27T06:18:11.347Z,2.33
2022-09-27T06:20:43.165Z,1.98
2022-09-27T06:23:12.994Z,2.00
2022-09-27T06:25:42.474Z,1.90
2022-09-27T06:28:30.835Z,2.42
2022-09-27T06:31:01.349Z,1.60
2022-09-27T06:34:03.529Z,2.15
2022-09-27T06:36:33.632Z,2.20
2022-09-27T06:39:01.930Z,1.75
2022-09-27T06:41:34.426Z,1.83
2022-09-27T06:44:07.493Z,1.85
2022-09-27T06:46:47.731Z,1.92
2022-09-27T06:49:52.570Z,2.25
2022-09-27T06:52:20.593Z,2.33
2022-09-27T06:54:48.582Z,2.30
2022-09-27T06:57:36.487Z,2.75
2022-09-27T07:00:24.482Z,2.35
2022-09-27T07:03:04.307Z,2.10
2022-09-27T07:06:01.920Z,2.38
2022-09-27T07:08:51.801Z,1.98
2022-09-27T07:11:20.772Z,2.40
2022-09-27T07:13:48.837Z,2.13
2022-09-27T07:16:16.818Z,1.95
2022-09-27T07:18:44.928Z,1.50
2022-09-27T07:21:16.507Z,2.22
2022-09-27T07:23:44.610Z,2.20
2022-09-27T07:26:14.935Z,1.80
2022-09-27T07:28:45.241Z,2.30
2022-09-27T07:31:17.434Z,2.70
2022-09-27T07:33:46.462Z,2.17
2022-09-27T07:36:15.994Z,1.92
2022-09-27T07:38:46.989Z,1.92
2022-09-27T07:41:17.799Z,2.78
2022-09-27T07:43:45.807Z,2.05
2022-09-27T07:46:15.171Z,1.88
2022-09-27T07:49:08.267Z,1.83
2022-09-27T07:51:37.724Z,2.33
2022-09-27T07:54:15.842Z,2.00
2022-09-27T07:57:09.505Z,2.00
2022-09-27T07:59:47.399Z,3.22
2022-09-27T08:02:19.123Z,2.28
2022-09-27T08:04:56.872Z,2.20
2022-09-27T08:07:29.645Z,2.22
2022-09-27T08:09:57.853Z,1.60
2022-09-27T08:12:30.085Z,2.05
2022-09-27T08:15:01.692Z,1.77
2022-09-27T08:17:32.991Z,1.73
2022-09-27T08:20:25.161Z,1.73
2022-09-27T08:22:57.031Z,1.95
2022-09-27T08:25:33.665Z,1.58
2022-09-27T08:28:20.456Z,1.63
2022-09-27T08:30:59.543Z,2.50
2022-09-27T08:33:32.280Z,1.52
2022-09-27T08:36:02.140Z,1.85
2022-09-27T08:38:32.409Z,1.70
2022-09-27T08:41:07.723Z,1.80
2022-09-27T08:43:42.171Z,1.75
2022-09-27T08:46:28.550Z,1.67
2022-09-27T08:49:05.903Z,2.22
2022-09-27T08:51:35.833Z,2.00
2022-09-27T08:54:08.731Z,1.60
2022-09-27T08:56:37.469Z,2.60
2022-09-27T08:59:12.543Z,2.58
2022-09-27T09:01:41.555Z,2.22
2022-09-27T09:04:29.952Z,1.80
2022-09-27T09:07:10.053Z,1.83
2022-09-27T09:09:51.884Z,1.67
2022-09-27T09:12:49.011Z,1.88
2022-09-27T09:15:54.524Z,2.05
2022-09-27T09:18:46.920Z,1.73
2022-09-27T09:21:30.212Z,2.13
2022-09-27T09:24:24.761Z,1.70
2022-09-27T09:27:01.280Z,1.38
2022-09-27T09:29:45.658Z,1.75
2022-09-27T09:32:24.499Z,1.63
2022-09-27T09:34:58.080Z,1.95
2022-09-27T09:37:38.202Z,2.25
2022-09-27T09:40:16.229Z,1.92
2022-09-27T09:42:49.881Z,1.75
2022-09-27T09:45:25.450Z,1.10
2022-09-27T09:48:01.727Z,1.00
2022-09-27T09:50:35.452Z,1.20
2022-09-27T09:53:13.799Z,1.23
2022-09-27T09:55:44.392Z,1.10
2022-09-27T09:58:37.251Z,0.90
2022-09-27T10:01:18.077Z,1.17
2022-09-27T10:03:46.612Z,1.02
2022-09-27T10:06:16.782Z,1.27
2022-09-27T10:08:45.471Z,1.25
2022-09-27T10:11:26.310Z,1.20
2022-09-27T10:14:24.062Z,1.27
2022-09-27T10:16:59.670Z,1.42
2022-09-27T10:19:31.941Z,1.27
2022-09-27T10:22:04.518Z,1.40
2022-09-27T10:24:57.521Z,1.02
2022-09-27T10:27:55.033Z,0.85
2022-09-27T10:30:34.380Z,1.13
2022-09-27T10:33:16.923Z,0.85
2022-09-27T10:35:51.171Z,0.90
2022-09-27T10:38:31.635Z,0.68
2022-09-27T10:41:37.492Z,0.70
2022-09-27T10:44:25.187Z,0.85
2022-09-27T10:47:09.367Z,0.60
2022-09-27T10:50:07.242Z,0.80
2022-09-27T10:53:07.412Z,1.00
2022-09-27T10:55:38.890Z,0.63
2022-09-27T10:58:17.128Z,0.80
2022-09-27T11:00:58.040Z,0.85
2022-09-27T11:03:29.463Z,0.82
2022-09-27T11:06:00.007Z,1.05
2022-09-27T11:08:33.165Z,0.98
2022-09-27T11:11:17.080Z,0.90
2022-09-27T11:13:59.654Z,0.80
2022-09-27T11:16:48.505Z,1.17
2022-09-27T11:19:36.543Z,0.98
2022-09-27T11:22:16.988Z,0.75
2022-09-27T11:25:01.089Z,1.00
2022-09-27T11:27:46.463Z,0.70
2022-09-27T11:30:19.767Z,0.80
2022-09-27T11:33:45.755Z,0.88
2022-09-27T11:36:26.995Z,0.95
2022-09-27T11:39:04.086Z,1.10
2022-09-27T11:41:50.838Z,1.10
2022-09-27T11:45:07.787Z,0.85
2022-09-27T11:47:48.515Z,0.70
2022-09-27T11:50:54.139Z,0.90
2022-09-27T11:53:47.948Z,0.82
2022-09-27T11:56:30.224Z,0.80
2022-09-27T11:59:12.801Z,0.90
2022-09-27T12:01:51.319Z,0.47
2022-09-27T12:04:52.139Z,0.73
2022-09-27T12:07:33.964Z,0.70
2022-09-27T12:10:10.321Z,0.70
2022-09-27T12:12:57.246Z,1.00
2022-09-27T12:15:30.620Z,0.80
2022-09-27T12:18:08.330Z,1.35
2022-09-27T12:20:41.438Z,1.00
2022-09-27T12:23:17.838Z,1.00
2022-09-27T12:26:19.188Z,1.05
2022-09-27T12:28:53.157Z,1.42
2022-09-27T12:31:29.844Z,1.38
2022-09-27T12:34:10.684Z,1.20
2022-09-27T12:36:46.737Z,2.08
2022-09-27T12:39:21.566Z,1.10
2022-09-27T12:42:02.561Z,2.03
2022-09-27T12:44:44.937Z,1.25
2022-09-27T12:47:39.046Z,1.38
2022-09-27T12:50:30.446Z,1.70
2022-09-27T12:53:04.967Z,0.93
2022-09-27T12:56:00.956Z,1.35
2022-09-27T12:58:52.789Z,1.27
2022-09-27T13:01:40.178Z,1.08
2022-09-27T13:04:41.237Z,1.00
2022-09-27T13:07:26.403Z,1.50
2022-09-27T13:10:29.368Z,1.10
2022-09-27T13:13:14.543Z,0.98
2022-09-27T13:15:45.464Z,1.20
2022-09-27T13:18:47.128Z,1.42
2022-09-27T13:21:54.795Z,1.75
2022-09-27T13:24:50.037Z,1.40
2022-09-27T13:27:41.338Z,1.20
2022-09-27T13:30:48.668Z,1.23
2022-09-27T13:33:44.198Z,1.73
2022-09-27T13:36:36.126Z,1.30
2022-09-27T13:39:21.586Z,1.20
2022-09-27T13:42:32.088Z,1.03
2022-09-27T13:45:22.352Z,1.42
2022-09-27T13:47:54.757Z,1.63
2022-09-27T13:50:40.995Z,1.60
2022-09-27T13:53:22.746Z,1.45
2022-09-27T13:55:52.285Z,1.65
2022-09-27T13:58:51.168Z,1.48
2022-09-27T14:02:00.288Z,1.85
2022-09-27T14:04:43.063Z,1.70
2022-09-27T14:07:27.881Z,1.70
2022-09-27T14:10:02.296Z,1.58
2022-09-27T14:12:38.653Z,1.60
2022-09-27T14:15:18.673Z,1.25
2022-09-27T14:17:47.393Z,1.25
2022-09-27T14:20:40.974Z,1.40
2022-09-27T14:23:23.236Z,1.52
2022-09-27T14:25:54.423Z,1.52
2022-09-27T14:28:26.622Z,1.50
2022-09-27T14:31:07.843Z,1.90
2022-09-27T14:33:51.231Z,1.50
2022-09-27T14:36:46.885Z,1.30
2022-09-27T14:39:17.332Z,1.42
2022-09-27T14:41:48.152Z,2.22
2022-09-27T14:44:18.752Z,1.05
2022-09-27T14:46:48.637Z,1.30
2022-09-27T14:49:21.978Z,1.30
2022-09-27T14:51:56.638Z,1.55
2022-09-27T14:54:27.870Z,1.40
2022-09-27T14:56:58.194Z,1.60
2022-09-27T14:59:32.662Z,1.27
2022-09-27T15:02:05.013Z,1.42
2022-09-27T15:04:34.637Z,1.88
2022-09-27T15:07:05.911Z,1.88
2022-09-27T15:09:34.383Z,1.60
2022-09-27T15:12:05.734Z,1.40
2022-09-27T15:14:37.738Z,2.38
2022-09-27T15:17:06.234Z,1.92
2022-09-27T15:19:38.468Z,2.28
2022-09-27T15:22:37.018Z,1.50
2022-09-27T15:25:08.648Z,1.70
2022-09-27T15:27:37.544Z,1.90
2022-09-27T15:30:06.661Z,2.22
2022-09-27T15:32:34.838Z,1.75
2022-09-27T15:35:08.945Z,1.60
2022-09-27T15:37:39.530Z,1.52
2022-09-27T15:40:51.247Z,1.95
2022-09-27T15:43:22.388Z,1.70
2022-09-27T15:45:52.148Z,2.05
2022-09-27T15:48:21.418Z,1.80
2022-09-27T15:50:50.643Z,1.52
2022-09-27T15:53:45.733Z,1.50
2022-09-27T15:56:17.932Z,1.63
2022-09-27T15:58:46.147Z,1.73
2022-09-27T16:01:20.111Z,2.00
2022-09-27T16:03:53.386Z,1.80
2022-09-27T16:06:25.982Z,1.48
2022-09-27T16:08:55.713Z,1.27
2022-09-27T16:11:23.891Z,1.90
2022-09-27T16:13:53.313Z,1.95
2022-09-27T16:16:24.111Z,1.55
2022-09-27T16:18:52.631Z,1.92
2022-09-27T16:21:20.702Z,1.90
2022-09-27T16:23:48.892Z,1.88
2022-09-27T16:26:20.041Z,1.92
2022-09-27T16:28:49.283Z,1.35
2022-09-27T16:31:17.822Z,1.70
2022-09-27T16:33:49.801Z,1.85
2022-09-27T16:36:20.644Z,1.90
2022-09-27T16:38:52.573Z,1.70
2022-09-27T16:41:22.652Z,2.00
2022-09-27T16:43:51.104Z,2.00
2022-09-27T16:46:19.856Z,2.08
2022-09-27T16:48:49.333Z,2.63
2022-09-27T16:51:37.672Z,2.03
2022-09-27T16:54:07.697Z,2.13
2022-09-27T16:56:37.825Z,1.85
2022-09-27T16:59:07.021Z,1.50
2022-09-27T17:01:35.414Z,1.67
2022-09-27T17:04:03.932Z,1.50
2022-09-27T17:06:35.232Z,2.75
2022-09-27T17:09:04.494Z,2.92
2022-09-27T17:11:33.763Z,2.28
2022-09-27T17:14:03.872Z,2.25
2022-09-27T17:16:32.190Z,2.10
2022-09-27T17:19:00.771Z,1.90
2022-09-27T17:21:30.921Z,2.10
2022-09-27T17:24:01.781Z,2.35
2022-09-27T17:26:33.186Z,2.28
2022-09-27T17:29:04.623Z,2.72
2022-09-27T17:31:35.390Z,2.40
2022-09-27T17:34:04.342Z,2.30
2022-09-27T17:36:34.814Z,2.75
2022-09-27T17:39:04.022Z,2.85
2022-09-27T17:41:39.639Z,2.90
2022-09-27T17:44:13.011Z,3.00
2022-09-27T17:46:42.027Z,2.90
2022-09-27T17:49:29.131Z,3.08
2022-09-27T17:54:28.074Z,2.83
2022-09-27T17:56:59.452Z,3.40
2022-09-27T17:59:29.144Z,2.83
2022-09-27T18:01:57.801Z,3.05
2022-09-27T18:04:25.991Z,3.28
2022-09-27T18:06:54.659Z,3.92
2022-09-27T18:09:22.813Z,4.28
2022-09-27T18:11:52.241Z,3.65
2022-09-27T18:14:22.433Z,3.55
2022-09-27T18:16:54.608Z,4.22
2022-09-27T18:19:22.828Z,3.83
2022-09-27T18:21:51.394Z,3.33
2022-09-27T18:24:19.360Z,3.20
2022-09-27T18:26:49.418Z,4.10
2022-09-27T18:29:21.559Z,3.42
2022-09-27T18:31:50.151Z,3.42
2022-09-27T18:34:20.295Z,2.78
2022-09-27T18:36:48.501Z,2.55
2022-09-27T18:39:19.651Z,2.83
2022-09-27T18:41:49.618Z,2.60
2022-09-27T18:44:18.573Z,2.33
2022-09-27T18:46:47.948Z,2.70
2022-09-27T18:49:16.925Z,2.55
2022-09-27T18:51:47.689Z,2.50
2022-09-27T18:54:19.067Z,3.72
2022-09-27T18:56:49.576Z,3.00
2022-09-27T18:59:21.500Z,2.92
2022-09-27T19:01:52.254Z,2.90
2022-09-27T19:04:30.104Z,3.08
2022-09-27T19:07:00.636Z,3.28
2022-09-27T19:09:29.046Z,3.47
2022-09-27T19:11:59.126Z,3.13
2022-09-27T19:14:30.449Z,2.97
2022-09-27T19:16:59.707Z,3.17
2022-09-27T19:19:28.741Z,3.15
2022-09-27T19:21:58.677Z,2.97
2022-09-27T19:24:28.637Z,3.72
2022-09-27T19:27:00.717Z,3.25
2022-09-27T19:29:29.997Z,3.45
2022-09-27T19:31:58.523Z,3.47
2022-09-27T19:34:27.066Z,3.22
2022-09-27T19:36:55.722Z,3.60
2022-09-27T19:39:24.289Z,2.92
2022-09-27T19:41:54.505Z,4.22
2022-09-27T19:44:23.216Z,3.63
2022-09-27T19:46:51.853Z,2.97
2022-09-27T19:49:20.799Z,3.30
2022-09-27T19:51:49.656Z,3.70
2022-09-27T19:54:18.156Z,3.70
2022-09-27T19:56:46.347Z,3.95
2022-09-27T19:59:17.050Z,3.20
2022-09-27T20:01:46.407Z,3.40
2022-09-27T20:04:15.655Z,3.50
2022-09-27T20:06:43.925Z,3.80
2022-09-27T20:09:11.973Z,3.80
2022-09-27T20:11:40.182Z,4.15
2022-09-27T20:14:08.251Z,4.60
2022-09-27T20:16:41.258Z,4.28
2022-09-27T20:19:10.687Z,3.50
2022-09-27T20:21:54.036Z,3.50
2022-09-27T20:24:22.399Z,3.53
2022-09-27T20:26:51.362Z,3.35
2022-09-27T20:29:20.405Z,3.55
2022-09-27T20:32:09.393Z,2.78
2022-09-27T20:34:38.095Z,2.60
2022-09-27T20:37:07.690Z,3.08
2022-09-27T20:39:36.158Z,3.45
2022-09-27T20:42:05.061Z,4.38
2022-09-27T20:44:33.546Z,3.22
2022-09-27T20:47:03.626Z,3.08
2022-09-27T20:49:32.082Z,3.53
2022-09-27T20:52:00.458Z,4.03
2022-09-27T20:54:28.309Z,3.25
2022-09-27T20:56:56.233Z,3.40
2022-09-27T20:59:24.720Z,3.55
2022-09-27T21:01:53.685Z,3.35
2022-09-27T21:04:23.710Z,3.33
2022-09-27T21:06:52.952Z,3.00
2022-09-27T21:09:20.812Z,3.22
2022-09-27T21:11:52.115Z,3.15
2022-09-27T21:14:20.939Z,3.55
2022-09-27T21:16:49.283Z,3.20
2022-09-27T21:19:17.785Z,3.17
2022-09-27T21:21:48.976Z,4.05
2022-09-27T21:24:17.019Z,2.95
2022-09-27T21:26:44.883Z,2.70
2022-09-27T21:29:13.804Z,3.50
2022-09-27T21:31:42.363Z,3.08
2022-09-27T21:34:10.201Z,3.30
2022-09-27T21:36:39.200Z,3.45
2022-09-27T21:39:09.350Z,2.70
2022-09-27T21:41:39.168Z,3.28
2022-09-27T21:44:07.997Z,3.38
2022-09-27T21:46:38.732Z,2.92
2022-09-27T21:49:06.704Z,2.92
2022-09-27T21:51:37.208Z,3.10
2022-09-27T21:54:10.487Z,3.20
2022-09-27T21:56:39.862Z,3.03
2022-09-27T21:59:10.513Z,2.78
2022-09-27T22:01:38.261Z,3.03
2022-09-27T22:04:06.790Z,3.53
2022-09-27T22:06:36.632Z,3.17
2022-09-27T22:09:08.727Z,3.28
2022-09-27T22:11:39.107Z,2.95
2022-09-27T22:14:09.801Z,2.72
2022-09-27T22:16:37.932Z,3.70
2022-09-27T22:19:05.648Z,2.97
2022-09-27T22:21:35.462Z,3.05
2022-09-27T22:24:08.051Z,2.92
2022-09-27T22:26:38.885Z,2.60
2022-09-27T22:29:07.609Z,2.55
2022-09-27T22:31:35.647Z,2.80
2022-09-27T22:34:06.164Z,2.42
2022-09-27T22:36:34.727Z,1.80
2022-09-27T22:39:02.685Z,2.42
2022-09-27T22:41:30.688Z,2.25
2022-09-27T22:44:00.266Z,2.20
2022-09-27T22:46:27.937Z,2.20
2022-09-27T22:48:56.315Z,1.88
2022-09-27T22:51:23.929Z,2.03
2022-09-27T22:53:51.573Z,1.67
2022-09-27T22:56:20.559Z,2.45
2022-09-27T22:58:48.994Z,2.15
2022-09-27T23:01:19.866Z,1.75
2022-09-27T23:03:48.579Z,2.50
2022-09-27T23:06:18.121Z,2.15
2022-09-27T23:08:46.451Z,2.17
2022-09-27T23:11:17.705Z,2.20
2022-09-27T23:13:45.650Z,2.33
2022-09-27T23:16:15.257Z,1.83
2022-09-27T23:18:44.646Z,2.25
2022-09-27T23:23:45.024Z,1.83
2022-09-27T23:28:46.751Z,1.42
2022-09-27T23:31:17.187Z,1.98
2022-09-27T23:33:48.656Z,1.90
2022-09-27T23:36:17.991Z,2.28
2022-09-27T23:38:46.508Z,1.80
2022-09-27T23:41:15.267Z,2.00
2022-09-27T23:43:43.536Z,2.05
2022-09-27T23:46:13.653Z,2.00
2022-09-27T23:48:41.304Z,1.70
2022-09-27T23:51:12.132Z,1.75
2022-09-27T23:53:40.845Z,2.05
2022-09-27T23:56:10.508Z,1.45
2022-09-27T23:58:39.550Z,2.30
